createdAt,value
2024-02-20T00:03:51.030Z,2.06
2024-02-20T00:08:57.576Z,2.07
2024-02-20T00:14:02.919Z,2.08
2024-02-20T00:19:08.490Z,2.10
2024-02-20T00:24:14.646Z,2.11
2024-02-20T00:29:19.923Z,2.13
2024-02-20T00:34:26.185Z,2.16
2024-02-20T00:39:33.531Z,2.18
2024-02-20T00:44:39.665Z,2.20
2024-02-20T00:49:45.118Z,2.22
2024-02-20T00:54:50.629Z,2.24
2024-02-20T00:59:56.806Z,2.26
2024-02-20T01:05:03.755Z,2.29
2024-02-20T01:10:10.053Z,2.31
2024-02-20T01:15:16.377Z,2.33
2024-02-20T01:20:22.927Z,2.34
2024-02-20T01:25:30.778Z,2.36
2024-02-20T01:30:37.176Z,2.39
2024-02-20T01:35:44.402Z,2.44
2024-02-20T01:40:49.727Z,2.49
2024-02-20T01:45:56.037Z,2.52
2024-02-20T01:51:02.761Z,2.51
2024-02-20T01:56:11.010Z,2.53
2024-02-20T02:01:17.475Z,2.56
2024-02-20T02:06:31.012Z,2.57
2024-02-20T02:11:41.347Z,2.60
2024-02-20T02:16:49.057Z,2.62
2024-02-20T02:21:55.459Z,2.62
2024-02-20T02:27:01.830Z,2.63
2024-02-20T02:32:08.815Z,2.65
2024-02-20T02:37:15.117Z,2.68
2024-02-20T02:42:22.605Z,2.71
2024-02-20T02:47:27.928Z,2.73
2024-02-20T02:52:34.524Z,2.76
2024-02-20T02:57:41.311Z,2.78
2024-02-20T03:02:49.147Z,2.79
2024-02-20T03:07:54.494Z,2.78
2024-02-20T03:13:00.265Z,2.79
2024-02-20T03:18:08.252Z,2.81
2024-02-20T03:23:14.878Z,2.82
2024-02-20T03:28:21.016Z,2.84
2024-02-20T03:33:28.250Z,2.88
2024-02-20T03:38:34.073Z,2.89
2024-02-20T03:43:39.408Z,2.92
2024-02-20T03:48:46.049Z,2.93
2024-02-20T03:53:52.720Z,2.94
2024-02-20T03:58:59.329Z,2.95
2024-02-20T04:04:06.836Z,2.96
2024-02-20T04:09:13.256Z,2.94
2024-02-20T04:14:19.597Z,2.95
2024-02-20T04:19:26.108Z,2.97
2024-02-20T04:24:33.033Z,2.98
2024-02-20T04:29:39.334Z,2.99
2024-02-20T04:34:44.733Z,3.01
2024-02-20T04:39:50.140Z,3.04
2024-02-20T04:44:56.497Z,3.05
2024-02-20T04:50:02.861Z,3.08
2024-02-20T04:55:09.671Z,3.11
2024-02-20T05:00:18.195Z,3.16
2024-02-20T05:05:24.545Z,3.20
2024-02-20T05:10:30.026Z,3.23
2024-02-20T05:15:36.858Z,3.28
2024-02-20T05:20:43.611Z,3.30
2024-02-20T05:25:49.061Z,3.35
2024-02-20T05:30:55.342Z,3.37
2024-02-20T05:36:01.589Z,3.40
2024-02-20T05:41:08.240Z,3.43
2024-02-20T05:46:14.756Z,3.45
2024-02-20T05:51:21.097Z,3.46
2024-02-20T05:56:27.532Z,3.48
2024-02-20T06:01:33.818Z,3.49
2024-02-20T06:06:39.588Z,3.51
2024-02-20T06:11:46.017Z,3.52
2024-02-20T06:16:52.493Z,3.55
2024-02-20T06:21:58.801Z,3.58
2024-02-20T06:27:08.624Z,3.62
2024-02-20T06:32:13.904Z,3.66
2024-02-20T06:37:20.446Z,3.70
2024-02-20T06:42:28.502Z,3.74
2024-02-20T06:47:34.796Z,3.79
2024-02-20T06:52:42.356Z,3.83
2024-02-20T06:57:55.749Z,3.88
2024-02-20T07:03:01.277Z,3.94
2024-02-20T07:08:07.446Z,4.02
2024-02-20T07:13:14.055Z,4.09
2024-02-20T07:18:20.763Z,4.12
2024-02-20T07:23:27.151Z,4.15
2024-02-20T07:28:34.031Z,4.18
2024-02-20T07:33:42.063Z,4.20
2024-02-20T07:38:51.005Z,4.23
2024-02-20T07:43:57.487Z,4.23
2024-02-20T07:49:03.041Z,4.24
2024-02-20T07:54:08.679Z,4.25
2024-02-20T07:59:14.717Z,4.27
2024-02-20T08:04:21.511Z,4.26
2024-02-20T08:09:28.305Z,4.28
2024-02-20T08:14:33.975Z,4.32
2024-02-20T08:19:40.922Z,4.33
2024-02-20T08:24:47.439Z,4.34
2024-02-20T08:29:59.904Z,4.35
2024-02-20T08:35:07.623Z,4.28
2024-02-20T08:40:13.893Z,4.43
2024-02-20T08:45:20.783Z,4.44
2024-02-20T08:50:26.357Z,4.51
2024-02-20T08:55:32.782Z,4.57
2024-02-20T09:00:39.101Z,4.60
2024-02-20T09:05:44.570Z,4.64
2024-02-20T09:10:51.135Z,4.69
2024-02-20T09:15:57.678Z,4.74
2024-02-20T09:21:03.689Z,4.66
2024-02-20T09:26:13.580Z,4.81
2024-02-20T09:31:19.936Z,4.83
2024-02-20T09:36:25.238Z,4.86
2024-02-20T09:41:32.881Z,4.87
2024-02-20T09:46:42.654Z,4.91
2024-02-20T09:51:49.199Z,4.93
2024-02-20T09:56:57.274Z,4.94
2024-02-20T10:02:05.287Z,4.99
2024-02-20T10:07:12.158Z,5.00
2024-02-20T10:12:25.526Z,5.03
2024-02-20T10:17:33.132Z,5.07
2024-02-20T10:22:43.963Z,5.09
2024-02-20T10:27:51.754Z,5.11
2024-02-20T10:32:58.608Z,5.11
2024-02-20T10:38:06.825Z,5.12
2024-02-20T10:43:14.229Z,5.13
2024-02-20T10:48:25.983Z,5.12
2024-02-20T10:53:32.991Z,5.12
2024-02-20T10:58:41.725Z,5.11
2024-02-20T11:03:59.162Z,5.11
2024-02-20T11:09:10.381Z,5.12
2024-02-20T11:14:26.240Z,5.15
2024-02-20T11:19:34.479Z,5.15
2024-02-20T11:24:41.265Z,5.18
2024-02-20T11:29:46.932Z,5.19
2024-02-20T11:34:52.334Z,5.18
2024-02-20T11:40:01.960Z,5.10
2024-02-20T11:45:17.113Z,5.20
2024-02-20T11:50:23.736Z,5.19
2024-02-20T11:55:30.150Z,5.18
2024-02-20T12:00:37.100Z,5.15
2024-02-20T12:05:44.396Z,5.14
2024-02-20T12:10:51.197Z,5.13
2024-02-20T12:15:57.722Z,5.11
2024-02-20T12:21:11.279Z,5.10
2024-02-20T12:26:21.539Z,5.09
2024-02-20T12:31:30.649Z,5.08
2024-02-20T12:36:40.097Z,5.07
2024-02-20T12:41:46.683Z,5.06
2024-02-20T12:46:53.212Z,5.06
2024-02-20T12:52:00.224Z,5.07
2024-02-20T12:57:06.957Z,5.10
2024-02-20T13:02:13.311Z,5.02
2024-02-20T13:07:19.166Z,5.11
2024-02-20T13:12:27.143Z,5.12
2024-02-20T13:17:32.741Z,5.10
2024-02-20T13:22:40.084Z,5.07
2024-02-20T13:27:47.742Z,5.03
2024-02-20T13:32:54.425Z,5.03
2024-02-20T13:38:00.221Z,5.01
2024-02-20T13:43:11.604Z,5.02
2024-02-20T13:48:18.789Z,5.03
2024-02-20T13:53:25.184Z,5.04
2024-02-20T13:58:30.825Z,5.06
2024-02-20T14:03:37.271Z,5.08
2024-02-20T14:08:47.458Z,5.09
2024-02-20T14:13:52.837Z,5.10
2024-02-20T14:18:59.238Z,5.11
2024-02-20T14:24:05.769Z,5.13
2024-02-20T14:29:12.406Z,5.16
2024-02-20T14:34:23.271Z,5.18
2024-02-20T14:39:28.753Z,5.19
2024-02-20T14:44:36.488Z,5.21
2024-02-20T14:49:42.678Z,5.22
2024-02-20T14:54:48.857Z,5.21
2024-02-20T14:59:54.168Z,5.20
2024-02-20T15:05:00.059Z,5.20
2024-02-20T15:10:08.418Z,5.20
2024-02-20T15:15:18.657Z,5.19
2024-02-20T15:20:26.433Z,5.18
2024-02-20T15:25:32.930Z,5.17
2024-02-20T15:30:39.058Z,5.15
2024-02-20T15:35:45.155Z,5.14
2024-02-20T15:40:53.156Z,5.13
2024-02-20T15:46:00.276Z,5.12
2024-02-20T15:51:11.172Z,5.09
2024-02-20T15:56:17.681Z,5.05
2024-02-20T16:01:26.198Z,5.01
2024-02-20T16:06:35.050Z,4.97
2024-02-20T16:11:40.927Z,4.94
2024-02-20T16:16:47.164Z,4.93
2024-02-20T16:21:53.708Z,4.91
2024-02-20T16:27:00.789Z,4.90
2024-02-20T16:32:07.133Z,4.88
2024-02-20T16:37:14.023Z,4.86
2024-02-20T16:42:20.925Z,4.84
2024-02-20T16:47:27.409Z,4.82
2024-02-20T16:52:33.791Z,4.79
2024-02-20T16:57:39.562Z,4.77
2024-02-20T17:02:46.421Z,4.76
2024-02-20T17:07:53.425Z,4.76
2024-02-20T17:12:59.831Z,4.72
2024-02-20T17:18:06.480Z,4.64
2024-02-20T17:23:16.264Z,4.60
2024-02-20T17:28:23.265Z,4.56
2024-02-20T17:33:28.952Z,4.52
2024-02-20T17:38:35.366Z,4.50
2024-02-20T17:43:41.091Z,4.47
2024-02-20T17:48:48.995Z,4.45
2024-02-20T17:53:55.556Z,4.46
2024-02-20T17:59:01.921Z,4.45
2024-02-20T18:04:08.839Z,4.45
2024-02-20T18:09:15.688Z,4.44
2024-02-20T18:14:22.544Z,4.42
2024-02-20T18:19:29.633Z,4.43
2024-02-20T18:24:36.105Z,4.43
2024-02-20T18:29:41.792Z,4.41
2024-02-20T18:34:47.902Z,4.41
2024-02-20T18:39:57.550Z,4.40
2024-02-20T18:45:04.384Z,4.40
2024-02-20T18:50:11.620Z,4.39
2024-02-20T18:55:19.355Z,4.39
2024-02-20T19:00:26.317Z,4.37
2024-02-20T19:05:31.751Z,4.37
2024-02-20T19:10:38.850Z,4.36
2024-02-20T19:15:44.248Z,4.34
2024-02-20T19:20:50.078Z,4.32
2024-02-20T19:25:55.495Z,4.31
2024-02-20T19:31:00.861Z,4.32
2024-02-20T19:36:07.819Z,4.31
2024-02-20T19:41:14.785Z,4.32
2024-02-20T19:46:22.077Z,4.32
2024-02-20T19:51:28.726Z,4.32
2024-02-20T19:56:40.134Z,4.32
2024-02-20T20:01:46.588Z,4.31
2024-02-20T20:06:52.957Z,4.31
2024-02-20T20:11:58.363Z,4.31
2024-02-20T20:17:05.948Z,4.31
2024-02-20T20:22:11.733Z,4.32
2024-02-20T20:27:19.192Z,4.32
2024-02-20T20:32:26.174Z,4.31
2024-02-20T20:37:32.841Z,4.32
2024-02-20T20:42:39.444Z,4.33
2024-02-20T20:47:46.708Z,4.34
2024-02-20T20:52:53.109Z,4.35
2024-02-20T20:57:59.751Z,4.36
2024-02-20T21:03:07.807Z,4.37
2024-02-20T21:08:14.543Z,4.37
2024-02-20T21:13:21.106Z,4.38
2024-02-20T21:18:28.099Z,4.38
2024-02-20T21:23:34.531Z,4.39
2024-02-20T21:28:41.034Z,4.39
2024-02-20T21:33:48.745Z,4.40
2024-02-20T21:38:54.767Z,4.37
2024-02-20T21:44:01.657Z,4.37
2024-02-20T21:49:07.154Z,4.37
2024-02-20T21:54:12.647Z,4.38
2024-02-20T21:59:19.605Z,4.40
2024-02-20T22:04:26.350Z,4.42
2024-02-20T22:09:33.827Z,4.45
2024-02-20T22:14:40.214Z,4.46
2024-02-20T22:19:47.196Z,4.49
2024-02-20T22:24:53.704Z,4.50
2024-02-20T22:30:00.004Z,4.50
2024-02-20T22:35:05.601Z,4.51
2024-02-20T22:40:13.407Z,4.53
2024-02-20T22:45:21.055Z,4.54
2024-02-20T22:50:27.670Z,4.56
2024-02-20T22:55:34.644Z,4.57
2024-02-20T23:00:40.052Z,4.60
2024-02-20T23:05:46.819Z,4.60
2024-02-20T23:10:53.310Z,4.61
2024-02-20T23:15:59.974Z,4.62
2024-02-20T23:21:06.981Z,4.62
2024-02-20T23:26:12.810Z,4.63
2024-02-20T23:31:18.916Z,4.64
2024-02-20T23:36:25.883Z,4.65
2024-02-20T23:41:31.594Z,4.68
2024-02-20T23:46:38.101Z,4.69
2024-02-20T23:51:44.714Z,4.70
2024-02-20T23:56:51.038Z,4.71
